Watton, United Kingdom
Current Conditions -  °F | °C
As of 11:50 PM on Friday 28 Nov 2014 (Local Time) from EGXV Reporting Station
Rain Showers Rain Showers  
Wind Chill: 50°   Ceiling: 800
Heat Index: 50°   Visibility: 2.3mi
Dew Point: 48°   Wind: 6mph
Humidity: 94%   Direction: 80°E
Pressure: 29.83"   Gusts: NA
Location:  53.93°N, 0.45°W
Report Text: EGXV 282350Z AUTO 08005KT 3700 -SHRA OVC008/// 10/09 Q1010
Loading
Personal Weather Stations






























Interactive Weather Map New forecast layout! Learn more

10-Day Weather Forecast

Advertisements
Track Severe Weather on mobile